Time;durP1;ratioP1;P1;durP2;ratioP2;P2;SDS_P1;SDS_P2;PMS_P1;PMS_P2;Temp;Humidity;BMP_temperature;BMP_pressure;BME280_temperature;BME280_humidity;BME280_pressure;Samples;Min_cycle;Max_cycle;Signal;HPM_P1;HPM_P2
2021/10/14 00:02:31;;;;;;;7.97;6.10;;;;;;;16.99;39.08;100138.25;4952694;29;20198;-83
2021/10/14 00:05:05;;;;;;;6.80;6.13;;;;;;;16.54;40.20;100132.97;4963588;23;20227;-82
2021/10/14 00:07:34;;;;;;;8.10;6.23;;;;;;;16.50;40.41;100142.63;4957830;23;20229;-82
2021/10/14 00:10:04;;;;;;;6.90;6.20;;;;;;;16.72;39.76;100131.91;4951344;29;20254;-81
2021/10/14 00:12:35;;;;;;;7.17;6.47;;;;;;;16.78;40.33;100136.34;4963634;23;20265;-84
2021/10/14 00:15:03;;;;;;;6.87;6.20;;;;;;;16.17;41.63;100124.50;4953204;29;20224;-82
2021/10/14 00:17:30;;;;;;;7.53;6.73;;;;;;;16.54;39.89;100137.56;4953213;29;20241;-83
2021/10/14 00:19:57;;;;;;;7.23;6.23;;;;;;;16.68;40.07;100138.88;4961978;23;20257;-83
2021/10/14 00:22:24;;;;;;;6.87;6.17;;;;;;;16.37;40.61;100132.16;4958231;23;20245;-82
2021/10/14 00:24:52;;;;;;;8.03;6.57;;;;;;;16.76;40.40;100145.75;4954107;29;20189;-84
2021/10/14 00:27:41;;;;;;;6.60;5.90;;;;;;;16.83;39.65;100127.47;4956115;29;20218;-82
2021/10/14 00:30:11;;;;;;;7.03;6.33;;;;;;;16.93;39.30;100150.09;4957178;29;20249;-82
2021/10/14 00:32:38;;;;;;;6.40;5.80;;;;;;;16.61;39.78;100141.75;4954882;29;20256;-82
2021/10/14 00:35:06;;;;;;;6.50;5.90;;;;;;;16.92;39.55;100156.59;4955886;29;20206;-83
2021/10/14 00:37:44;;;;;;;6.83;6.10;;;;;;;16.96;39.51;100135.25;4955104;29;20223;-83
2021/10/14 00:40:16;;;;;;;6.33;5.73;;;;;;;17.00;39.40;100148.03;4980206;23;20264;-84
2021/10/14 00:42:48;;;;;;;6.73;5.87;;;;;;;16.56;39.85;100146.25;4962058;23;20244;-83
2021/10/14 00:45:20;;;;;;;7.07;6.33;;;;;;;17.13;38.95;100149.56;4971995;29;20228;-82
2021/10/14 00:47:47;;;;;;;6.80;5.83;;;;;;;17.09;38.92;100149.25;4960755;23;20331;-82
2021/10/14 00:50:14;;;;;;;6.73;5.87;;;;;;;16.86;39.42;100137.81;4936968;29;20240;-83
2021/10/14 00:52:41;;;;;;;6.87;6.17;;;;;;;16.80;39.66;100144.22;4957476;29;20684;-82
2021/10/14 00:55:13;;;;;;;6.30;5.70;;;;;;;16.63;39.46;100144.22;4957628;29;20510;-82
2021/10/14 00:57:44;;;;;;;7.40;6.23;;;;;;;16.22;41.46;100143.53;4958881;28;20220;-82
2021/10/14 01:00:12;;;;;;;6.17;5.57;;;;;;;16.45;39.84;100137.16;4976638;29;20291;-82
2021/10/14 01:02:38;;;;;;;5.73;5.23;;;;;;;16.54;39.66;100130.25;4973048;23;20220;-81
2021/10/14 01:05:10;;;;;;;5.73;5.13;;;;;;;16.50;39.80;100131.81;4978705;29;20224;-82
2021/10/14 01:07:54;;;;;;;5.53;5.03;;;;;;;16.83;39.11;100141.84;4952989;29;20229;-82
2021/10/14 01:10:21;;;;;;;5.73;5.20;;;;;;;16.45;39.46;100117.38;5056032;23;20250;-80
2021/10/14 01:12:49;;;;;;;5.50;5.00;;;;;;;16.49;39.68;100135.59;4973187;28;20251;-81
2021/10/14 01:15:22;;;;;;;5.87;4.93;;;;;;;16.49;39.39;100113.94;4974457;28;20231;-81
2021/10/14 01:17:48;;;;;;;5.53;5.03;;;;;;;15.89;40.50;100126.41;5012579;23;20241;-81
2021/10/14 01:20:18;;;;;;;5.60;5.00;;;;;;;16.22;40.05;100127.31;5069279;23;20232;-83
2021/10/14 01:22:45;;;;;;;7.37;5.10;;;;;;;16.32;39.79;100129.34;4975051;29;20227;-81
2021/10/14 01:25:13;;;;;;;5.33;4.60;;;;;;;16.47;39.50;100116.06;4963154;23;20237;-82
2021/10/14 01:27:44;;;;;;;5.40;4.90;;;;;;;16.10;39.54;100126.53;4954896;29;20233;-80
2021/10/14 01:30:12;;;;;;;5.37;4.87;;;;;;;16.52;39.24;100115.31;4972554;29;20261;-82
2021/10/14 01:32:39;;;;;;;5.13;4.53;;;;;;;16.08;39.63;100125.16;4973041;23;20236;-83
2021/10/14 01:35:07;;;;;;;5.30;4.70;;;;;;;16.22;39.11;100123.78;4958392;29;20232;-82
2021/10/14 01:37:34;;;;;;;5.27;4.77;;;;;;;16.50;39.47;100112.06;4968725;23;20229;-83
2021/10/14 01:40:03;;;;;;;5.10;4.60;;;;;;;16.65;38.94;100117.75;4939404;29;20229;-81
2021/10/14 01:42:31;;;;;;;4.83;4.43;;;;;;;16.34;39.98;100118.28;4981006;23;20233;-81
2021/10/14 01:45:00;;;;;;;5.43;4.70;;;;;;;16.42;39.29;100112.47;4934791;23;21319;-82
2021/10/14 01:47:31;;;;;;;4.90;4.40;;;;;;;16.35;39.55;100119.94;4914906;29;20235;-81
2021/10/14 01:49:57;;;;;;;4.80;4.40;;;;;;;16.50;39.60;100120.19;4929080;23;21158;-82
2021/10/14 01:52:27;;;;;;;5.00;4.43;;;;;;;16.10;40.61;100121.13;4935499;29;20340;-81
2021/10/14 01:54:54;;;;;;;5.50;4.90;;;;;;;16.11;40.42;100117.38;4949517;29;20277;-83
2021/10/14 01:57:22;;;;;;;5.37;4.80;;;;;;;16.20;40.58;100126.72;4935962;29;20233;-82
2021/10/14 01:59:52;;;;;;;5.87;5.10;;;;;;;16.13;40.52;100111.72;4950929;23;20236;-81
2021/10/14 02:02:19;;;;;;;6.03;5.43;;;;;;;16.18;40.19;100111.81;4966661;23;20236;-82
2021/10/14 02:04:51;;;;;;;6.30;5.70;;;;;;;16.49;39.98;100113.13;4959583;29;20235;-81
2021/10/14 02:07:19;;;;;;;7.03;6.33;;;;;;;16.57;39.62;100118.94;4978621;23;20229;-83
2021/10/14 02:09:47;;;;;;;7.10;5.90;;;;;;;16.60;39.75;100113.09;4954754;29;20741;-81
2021/10/14 02:12:14;;;;;;;7.33;6.63;;;;;;;16.47;40.19;100118.78;4952517;29;20226;-82
2021/10/14 02:14:43;;;;;;;7.23;6.40;;;;;;;16.27;39.94;100108.47;4939309;29;20228;-81
2021/10/14 02:17:10;;;;;;;7.13;6.47;;;;;;;16.29;40.73;100127.13;4963995;23;20237;-82
2021/10/14 02:19:37;;;;;;;7.97;7.13;;;;;;;16.48;40.41;100123.13;4959807;23;20233;-82
2021/10/14 02:22:03;;;;;;;8.37;7.20;;;;;;;16.38;40.82;100124.88;4954352;23;20221;-81
2021/10/14 02:24:33;;;;;;;8.23;7.43;;;;;;;16.34;40.78;100127.22;4941606;23;20316;-83
2021/10/14 02:26:59;;;;;;;8.27;7.33;;;;;;;16.42;40.64;100126.00;4958426;23;20221;-82
2021/10/14 02:29:26;;;;;;;7.97;7.27;;;;;;;16.48;39.97;100123.13;4962700;23;20232;-82
2021/10/14 02:31:59;;;;;;;8.20;7.33;;;;;;;16.49;40.10;100123.94;4959332;29;20227;-81
2021/10/14 02:34:26;;;;;;;8.30;7.50;;;;;;;16.39;40.81;100111.06;4940976;29;20228;-84
2021/10/14 02:36:57;;;;;;;8.23;7.50;;;;;;;16.56;39.89;100128.09;4958253;29;20264;-83
2021/10/14 02:39:23;;;;;;;9.13;7.53;;;;;;;16.53;40.30;100131.31;4966034;23;20232;-81
2021/10/14 02:41:50;;;;;;;8.13;7.33;;;;;;;16.77;39.55;100117.63;4929279;23;20324;-82
2021/10/14 02:44:20;;;;;;;7.90;7.20;;;;;;;16.90;38.99;100133.53;4955617;29;20248;-82
2021/10/14 02:46:53;;;;;;;7.53;6.73;;;;;;;16.59;39.82;100130.38;4980560;23;20256;-82
2021/10/14 02:49:40;;;;;;;7.47;6.77;;;;;;;16.33;40.18;100127.47;4982724;23;20220;-83
2021/10/14 02:52:28;;;;;;;7.93;6.80;;;;;;;16.50;39.99;100137.22;4961425;29;20208;-81
2021/10/14 02:54:55;;;;;;;7.70;7.00;;;;;;;16.16;40.98;100136.38;4951801;23;20225;-81
2021/10/14 02:57:23;;;;;;;7.40;6.67;;;;;;;16.49;39.79;100137.47;4963275;23;20224;-81
2021/10/14 02:59:56;;;;;;;8.57;7.77;;;;;;;16.61;39.61;100135.53;4954971;29;20229;-82
2021/10/14 03:02:26;;;;;;;7.97;7.23;;;;;;;16.22;39.65;100138.13;4970777;23;20233;-82
2021/10/14 03:05:01;;;;;;;7.30;6.70;;;;;;;16.16;40.59;100130.97;4967664;23;20232;-82
2021/10/14 03:07:51;;;;;;;8.50;7.70;;;;;;;15.98;40.35;100117.69;4962969;23;20236;-81
2021/10/14 03:10:45;;;;;;;8.43;7.63;;;;;;;16.48;40.33;100144.75;4961384;23;20211;-82
2021/10/14 03:13:12;;;;;;;8.30;7.60;;;;;;;16.55;40.08;100139.19;4934437;29;20221;-82
2021/10/14 03:15:39;;;;;;;8.37;7.40;;;;;;;16.61;40.03;100149.88;4917547;29;20234;-82
2021/10/14 03:18:08;;;;;;;8.43;7.63;;;;;;;16.51;39.40;100152.41;4938803;23;20309;-81
2021/10/14 03:20:55;;;;;;;7.57;6.87;;;;;;;16.43;40.03;100149.25;4917973;29;20238;-82
2021/10/14 03:23:22;;;;;;;8.07;7.27;;;;;;;16.34;40.18;100145.31;4917970;23;20234;-82
2021/10/14 03:25:48;;;;;;;7.63;6.93;;;;;;;16.27;40.39;100142.78;4937994;29;20244;-81
2021/10/14 03:28:19;;;;;;;7.90;6.80;;;;;;;16.41;40.05;100140.59;4937763;29;20222;-81
2021/10/14 03:30:52;;;;;;;7.20;6.60;;;;;;;16.56;39.05;100157.06;4941614;23;20266;-82
2021/10/14 03:33:22;;;;;;;7.87;7.00;;;;;;;16.48;40.10;100160.16;4941242;23;20237;-80
2021/10/14 03:35:55;;;;;;;7.37;6.67;;;;;;;16.10;39.58;100145.44;4962427;23;20274;-81
2021/10/14 03:38:22;;;;;;;7.20;6.50;;;;;;;16.47;39.89;100158.53;4962535;23;20240;-82
2021/10/14 03:41:07;;;;;;;8.00;7.20;;;;;;;16.49;39.97;100149.09;4941618;29;20236;-81
2021/10/14 03:43:37;;;;;;;8.60;7.60;;;;;;;16.48;40.10;100155.56;4954729;23;20260;-82
2021/10/14 03:46:05;;;;;;;7.47;6.77;;;;;;;16.23;39.50;100158.69;4975602;29;20216;-82
2021/10/14 03:48:35;;;;;;;8.10;7.30;;;;;;;16.32;40.67;100151.00;4974559;29;20236;-82
2021/10/14 03:51:07;;;;;;;7.53;6.83;;;;;;;16.41;39.67;100157.63;4987763;23;20208;-82
2021/10/14 03:53:34;;;;;;;6.90;6.27;;;;;;;16.30;40.91;100156.63;4821820;23;4180070;-83
2021/10/14 03:56:04;;;;;;;7.33;6.63;;;;;;;16.13;39.69;100153.09;4958858;29;20244;-83
2021/10/14 03:58:32;;;;;;;7.30;6.60;;;;;;;16.49;40.02;100159.09;4965308;23;20229;-81
2021/10/14 04:00:59;;;;;;;8.00;7.20;;;;;;;16.50;39.70;100158.88;4941045;23;20248;-82
2021/10/14 04:03:26;;;;;;;7.80;7.00;;;;;;;16.51;39.87;100152.41;4951587;23;20276;-82
2021/10/14 04:05:57;;;;;;;7.20;6.50;;;;;;;16.17;40.66;100150.72;4955607;29;20236;-81
2021/10/14 04:08:27;;;;;;;7.27;6.53;;;;;;;16.19;40.13;100148.59;4979187;23;20296;-81
2021/10/14 04:11:05;;;;;;;7.17;6.30;;;;;;;16.43;39.95;100165.47;4996791;23;20233;-83
2021/10/14 04:13:32;;;;;;;7.57;6.78;;;;;;;16.09;40.91;100161.94;4975764;29;20443;-83
2021/10/14 04:16:23;;;;;;;7.13;6.43;;;;;;;16.40;40.51;100164.09;4981554;23;20233;-82
2021/10/14 04:18:50;;;;;;;7.53;6.80;;;;;;;16.40;40.33;100156.00;4980619;23;20263;-82
2021/10/14 04:21:29;;;;;;;7.50;6.70;;;;;;;16.56;39.59;100163.28;4962589;23;20277;-82
2021/10/14 04:24:07;;;;;;;7.30;6.60;;;;;;;16.13;39.70;100176.59;4957477;29;20224;-82
2021/10/14 04:26:34;;;;;;;7.70;6.90;;;;;;;16.36;40.55;100170.25;4994639;23;20238;-82
2021/10/14 04:29:07;;;;;;;7.00;6.30;;;;;;;16.24;40.60;100171.13;4941031;29;20189;-82
2021/10/14 04:31:58;;;;;;;8.20;7.43;;;;;;;16.42;40.07;100180.91;4899526;29;20508;-82
2021/10/14 04:34:25;;;;;;;7.60;6.90;;;;;;;16.51;39.11;100182.16;4950636;23;20263;-82
2021/10/14 04:36:54;;;;;;;6.87;6.17;;;;;;;16.40;39.60;100174.91;4956212;29;20241;-82
2021/10/14 04:39:23;;;;;;;7.17;6.47;;;;;;;16.61;39.09;100176.13;4966526;23;20233;-81
2021/10/14 04:41:50;;;;;;;7.20;6.50;;;;;;;16.52;39.28;100177.53;4987218;23;20232;-83
2021/10/14 04:44:18;;;;;;;6.27;5.67;;;;;;;16.48;39.44;100174.50;4977120;23;20305;-83
2021/10/14 04:46:45;;;;;;;6.30;5.70;;;;;;;16.01;40.54;100182.03;4939572;29;20228;-81
2021/10/14 04:49:15;;;;;;;6.63;6.03;;;;;;;16.32;39.99;100188.84;4953941;29;20288;-80
2021/10/14 04:51:46;;;;;;;6.40;5.80;;;;;;;16.46;39.51;100187.47;4963317;23;20213;-81
2021/10/14 04:54:31;;;;;;;7.57;5.80;;;;;;;16.51;38.90;100190.28;4968379;23;20273;-80
2021/10/14 04:56:58;;;;;;;6.30;5.70;;;;;;;16.42;39.47;100194.44;4973199;29;20232;-82
2021/10/14 04:59:44;;;;;;;6.40;5.80;;;;;;;16.41;39.72;100195.50;4959637;29;20236;-82
2021/10/14 05:02:20;;;;;;;7.03;6.00;;;;;;;16.24;39.47;100183.81;4974192;29;20240;-82
2021/10/14 05:04:49;;;;;;;7.47;6.17;;;;;;;16.19;39.64;100194.56;4974328;29;20232;-82
2021/10/14 05:07:36;;;;;;;6.57;5.97;;;;;;;16.18;39.18;100204.56;4974133;29;20240;-81
2021/10/14 05:10:03;;;;;;;6.33;5.73;;;;;;;16.06;39.74;100197.53;4958417;29;20223;-82
2021/10/14 05:12:32;;;;;;;6.73;6.13;;;;;;;15.95;39.67;100193.84;4981991;23;20231;-81
2021/10/14 05:14:58;;;;;;;6.83;6.23;;;;;;;15.95;39.67;100199.25;4959937;29;20233;-82
2021/10/14 05:17:33;;;;;;;7.90;6.17;;;;;;;15.76;39.83;100190.50;4949912;23;20221;-82
2021/10/14 05:20:12;;;;;;;8.27;7.00;;;;;;;15.92;39.19;100210.50;4914044;29;20244;-82
2021/10/14 05:22:52;;;;;;;7.30;6.60;;;;;;;15.85;39.83;100213.38;4936659;29;20210;-81
2021/10/14 05:25:40;;;;;;;7.93;6.73;;;;;;;15.84;39.75;100210.91;4967822;23;20239;-82
2021/10/14 05:28:12;;;;;;;7.20;6.50;;;;;;;15.86;39.95;100212.28;4962444;29;20229;-80
2021/10/14 05:30:45;;;;;;;6.60;6.00;;;;;;;15.92;40.02;100212.38;4941328;29;20245;-82
2021/10/14 05:33:24;;;;;;;6.90;6.20;;;;;;;15.88;39.81;100209.34;4952324;29;20640;-81
2021/10/14 05:35:51;;;;;;;7.50;6.70;;;;;;;15.78;39.77;100201.03;4948977;23;20277;-81
2021/10/14 05:38:54;;;;;;;6.83;6.23;;;;;;;16.09;39.44;100224.91;4970054;23;20253;-83
2021/10/14 05:41:40;;;;;;;7.30;6.60;;;;;;;16.04;39.49;100218.59;4954549;23;20237;-80
2021/10/14 05:44:16;;;;;;;7.43;6.30;;;;;;;16.11;39.64;100221.97;4979972;23;20247;-81
2021/10/14 05:47:06;;;;;;;7.83;6.80;;;;;;;16.18;39.29;100228.88;4978813;29;20176;-82
2021/10/14 05:49:37;;;;;;;7.80;6.83;;;;;;;14.58;43.06;100218.78;4977967;28;20232;-82
2021/10/14 05:52:13;;;;;;;8.00;7.17;;;;;;;14.47;43.46;100226.63;4958535;29;20256;-81
2021/10/14 05:55:17;;;;;;;7.87;7.07;;;;;;;14.50;43.97;100238.81;4965924;29;20299;-82
2021/10/14 05:58:21;;;;;;;8.80;7.50;;;;;;;14.48;44.13;100239.03;4954183;29;20197;-82
2021/10/14 06:01:11;;;;;;;7.50;6.80;;;;;;;14.56;44.20;100229.00;4966486;29;20252;-83
2021/10/14 06:04:23;;;;;;;7.20;6.50;;;;;;;14.68;44.06;100244.16;4976735;29;20221;-81
2021/10/14 06:07:02;;;;;;;8.47;6.37;;;;;;;14.75;44.28;100234.06;4935730;29;20242;-82
2021/10/14 06:09:40;;;;;;;7.27;6.37;;;;;;;14.87;44.05;100239.47;4974015;29;20252;-83
2021/10/14 06:12:16;;;;;;;6.93;6.23;;;;;;;14.97;44.05;100235.16;4959206;29;20233;-83
2021/10/14 06:15:02;;;;;;;6.87;6.23;;;;;;;15.02;43.86;100245.25;4954953;29;20268;-81
2021/10/14 06:17:41;;;;;;;6.70;5.90;;;;;;;15.11;44.16;100251.94;4953545;29;20252;-83
2021/10/14 06:20:19;;;;;;;8.23;6.27;;;;;;;15.14;43.03;100242.56;4967370;23;20236;-83
2021/10/14 06:23:02;;;;;;;7.93;6.37;;;;;;;15.20;43.67;100252.41;4971421;29;20524;-83
2021/10/14 06:25:41;;;;;;;8.27;7.47;;;;;;;15.21;43.73;100235.97;4974673;28;20236;-83
2021/10/14 06:28:11;;;;;;;7.80;7.00;;;;;;;15.32;43.20;100243.25;4978901;29;20252;-83
2021/10/14 06:31:20;;;;;;;8.20;7.40;;;;;;;15.39;43.51;100246.66;4990243;23;20256;-84
2021/10/14 06:33:51;;;;;;;9.40;8.47;;;;;;;15.52;43.69;100251.03;4975629;29;20566;-83
2021/10/14 06:36:25;;;;;;;10.20;9.20;;;;;;;15.69;42.96;100251.09;4953638;29;20625;-82
2021/10/14 06:38:56;;;;;;;8.83;7.30;;;;;;;15.70;43.18;100245.47;4947360;23;20240;-83
2021/10/14 06:41:26;;;;;;;9.60;8.70;;;;;;;16.17;42.73;100246.16;5005401;23;20233;-83
2021/10/14 06:44:13;;;;;;;11.50;10.27;;;;;;;16.36;42.12;100249.50;4977410;28;20177;-83
2021/10/14 06:46:54;;;;;;;8.27;7.47;;;;;;;16.62;42.07;100248.91;5016439;23;20248;-83
2021/10/14 06:49:26;;;;;;;6.80;5.63;;;;;;;16.57;41.66;100248.78;4994799;23;20285;31
2021/10/14 06:51:56;;;;;;;5.97;5.17;;;;;;;16.93;41.14;100249.44;5064527;23;20233;-83
2021/10/14 06:54:44;;;;;;;5.90;5.20;;;;;;;17.08;41.25;100236.09;4927779;29;20261;-83
2021/10/14 06:57:52;;;;;;;7.23;5.03;;;;;;;17.42;40.75;100247.72;4958241;23;20225;-83
2021/10/14 07:00:47;;;;;;;5.90;5.23;;;;;;;17.20;40.84;100258.53;4951024;29;20684;-83
2021/10/14 07:03:25;;;;;;;5.47;4.97;;;;;;;17.64;39.82;100250.53;4954621;29;20212;-83
2021/10/14 07:06:30;;;;;;;5.97;5.17;;;;;;;17.97;39.44;100264.75;4954807;29;20228;-83
2021/10/14 07:08:58;;;;;;;6.23;4.40;;;;;;;18.29;38.78;100242.34;4994090;23;20220;-83
2021/10/14 07:12:00;;;;;;;4.70;4.30;;;;;;;18.56;38.44;100258.66;4971574;29;20244;-83
2021/10/14 07:14:34;;;;;;;5.00;4.27;;;;;;;18.04;37.89;100246.41;5161389;23;20239;-83
2021/10/14 07:17:14;;;;;;;6.10;4.30;;;;;;;18.17;38.04;100250.63;4936666;29;20217;-83
2021/10/14 07:19:54;;;;;;;4.80;3.53;;;;;;;18.36;37.94;100254.63;4961788;23;20216;-83
2021/10/14 07:22:31;;;;;;;4.37;3.93;;;;;;;18.46;37.65;100265.59;4958207;29;20228;-83
2021/10/14 07:25:18;;;;;;;3.90;3.50;;;;;;;17.95;38.31;100277.75;4992165;23;20232;-83
2021/10/14 07:27:50;;;;;;;4.27;3.50;;;;;;;18.40;37.40;100258.47;4990516;23;20244;-82
2021/10/14 07:30:54;;;;;;;4.53;4.13;;;;;;;18.20;37.94;100284.53;4985986;23;20233;-83
2021/10/14 07:34:07;;;;;;;5.67;3.80;;;;;;;18.59;37.64;100286.09;5047917;23;20224;-82
2021/10/14 07:37:11;;;;;;;4.93;4.40;;;;;;;18.79;36.71;100261.88;4957483;23;20224;-82
2021/10/14 07:40:36;;;;;;;4.23;3.77;;;;;;;18.18;37.65;100260.41;4953781;23;20212;-83
2021/10/14 07:43:17;;;;;;;4.30;3.90;;;;;;;17.84;37.52;100267.03;4981056;23;20239;-83
2021/10/14 07:46:11;;;;;;;4.73;4.10;;;;;;;18.39;36.92;100283.13;4990252;23;20228;-83
2021/10/14 07:48:46;;;;;;;6.17;4.40;;;;;;;18.15;37.28;100270.94;4940037;23;20248;-82
2021/10/14 07:51:20;;;;;;;5.87;3.93;;;;;;;18.33;36.94;100270.59;5035856;23;20232;-83
2021/10/14 07:54:07;;;;;;;4.50;4.10;;;;;;;18.60;36.52;100260.59;5056577;23;20232;-82
2021/10/14 07:56:58;;;;;;;6.17;4.83;;;;;;;18.66;36.56;100285.91;4970351;23;20220;-83
2021/10/14 08:00:03;;;;;;;5.43;4.00;;;;;;;18.81;36.18;100272.44;4970695;23;20211;-83
2021/10/14 08:02:49;;;;;;;5.00;3.93;;;;;;;19.25;35.55;100260.34;4958181;29;20225;-83
2021/10/14 08:05:24;;;;;;;4.27;3.83;;;;;;;18.88;35.94;100276.63;4950817;29;20239;-83
2021/10/14 08:07:59;;;;;;;5.20;4.10;;;;;;;19.50;35.41;100259.72;4959236;23;20320;-83
2021/10/14 08:10:30;;;;;;;4.20;3.80;;;;;;;19.41;35.17;100260.44;4970903;23;20283;-84
2021/10/14 08:12:57;;;;;;;5.10;4.20;;;;;;;19.20;35.35;100271.16;4940014;29;20197;-81
2021/10/14 08:15:30;;;;;;;4.23;3.83;;;;;;;19.72;34.55;100251.41;4942557;29;20324;-80
2021/10/14 08:17:58;;;;;;;4.97;4.50;;;;;;;20.19;34.67;100263.03;5054748;23;20221;-81
2021/10/14 08:20:59;;;;;;;4.23;3.77;;;;;;;20.18;34.59;100272.25;4931933;23;20268;31
2021/10/14 08:23:29;;;;;;;4.47;3.37;;;;;;;19.88;34.72;100268.59;4889337;29;20314;-81
2021/10/14 08:25:56;;;;;;;3.70;3.03;;;;;;;20.12;34.36;100262.44;4903137;29;20304;-81
2021/10/14 08:28:24;;;;;;;3.30;3.00;;;;;;;19.61;34.85;100258.69;4903997;29;20226;-80
2021/10/14 08:30:51;;;;;;;3.83;2.90;;;;;;;19.52;35.24;100257.53;4889688;29;20269;-80
2021/10/14 08:33:21;;;;;;;3.83;3.40;;;;;;;19.64;34.84;100270.94;4902653;29;20548;-80
2021/10/14 08:35:51;;;;;;;3.87;3.00;;;;;;;19.65;34.78;100257.06;4884412;29;20231;-80
2021/10/14 08:38:18;;;;;;;5.23;4.07;;;;;;;19.35;35.12;100248.72;4888237;29;20235;-79
2021/10/14 08:40:46;;;;;;;3.83;3.13;;;;;;;19.86;34.79;100262.63;4924504;23;20230;-79
2021/10/14 08:43:17;;;;;;;4.77;3.97;;;;;;;19.32;36.46;100251.94;4926911;29;20226;-79
2021/10/14 08:45:48;;;;;;;6.63;4.43;;;;;;;19.65;35.45;100251.63;4895704;29;20238;-80
2021/10/14 08:48:15;;;;;;;4.03;3.60;;;;;;;19.24;36.21;100257.88;4895744;29;20293;-82
2021/10/14 08:50:45;;;;;;;4.60;3.40;;;;;;;19.43;35.73;100259.09;4929571;23;20241;-80
2021/10/14 08:53:14;;;;;;;4.30;3.47;;;;;;;19.25;35.84;100245.94;4876085;29;20579;-79
2021/10/14 08:55:44;;;;;;;4.17;3.20;;;;;;;18.90;36.52;100252.72;4932355;23;20233;-80
2021/10/14 08:58:13;;;;;;;4.33;3.33;;;;;;;19.52;35.65;100256.72;4947181;29;20233;-79
2021/10/14 09:01:08;;;;;;;4.30;3.53;;;;;;;19.53;35.77;100252.94;4944649;29;20228;-81
2021/10/14 09:03:40;;;;;;;5.07;3.90;;;;;;;19.36;35.37;100256.59;4930287;29;20316;-81
2021/10/14 09:06:09;;;;;;;3.90;3.50;;;;;;;19.65;34.48;100250.81;4926759;29;20240;-81
2021/10/14 09:08:40;;;;;;;4.83;3.67;;;;;;;19.25;35.23;100256.78;4942488;29;20319;-82
2021/10/14 09:11:14;;;;;;;3.93;3.23;;;;;;;19.99;34.35;100254.78;4942007;29;20254;-81
2021/10/14 09:13:51;;;;;;;3.40;3.10;;;;;;;20.54;33.97;100254.13;4936665;29;20216;-81
2021/10/14 09:16:38;;;;;;;2.87;2.57;;;;;;;20.58;33.74;100249.78;4919934;29;20214;-80
2021/10/14 09:19:11;;;;;;;2.80;2.60;;;;;;;20.21;33.92;100258.13;4921529;29;20641;-81
2021/10/14 09:21:40;;;;;;;3.07;2.63;;;;;;;20.48;33.34;100257.94;4947978;29;20264;-81
2021/10/14 09:24:30;;;;;;;4.70;4.10;;;;;;;20.56;33.57;100260.16;4940693;23;20643;-81
2021/10/14 09:27:02;;;;;;;13.83;6.00;;;;;;;20.82;33.21;100249.25;4988117;28;20220;-79
2021/10/14 09:32:22;;;;;;;6.07;3.47;;;;;;;21.56;32.46;100245.97;4909840;29;20259;-79
2021/10/14 09:34:52;;;;;;;2.93;2.40;;;;;;;22.38;30.90;100237.97;4911252;29;20234;-80
2021/10/14 09:37:21;;;;;;;4.30;2.70;;;;;;;22.57;30.65;100237.31;4881531;29;20262;-79
2021/10/14 09:39:59;;;;;;;3.63;3.00;;;;;;;22.08;31.76;100243.59;4912849;29;20258;-79
2021/10/14 09:43:07;;;;;;;3.53;3.00;;;;;;;21.69;31.82;100242.66;4913235;29;20218;-79
2021/10/14 09:45:34;;;;;;;3.10;2.80;;;;;;;21.52;31.31;100232.03;4893060;29;20724;-79
2021/10/14 09:48:05;;;;;;;3.83;2.30;;;;;;;21.67;31.72;100240.19;4875680;29;20969;-79
2021/10/14 09:50:33;;;;;;;2.70;2.43;;;;;;;21.22;32.37;100243.84;4894497;29;20231;-79
2021/10/14 09:53:02;;;;;;;3.20;2.43;;;;;;;21.34;32.02;100240.81;4894833;23;20231;-79
2021/10/14 09:55:29;;;;;;;2.97;2.23;;;;;;;21.76;31.45;100235.78;4959986;23;20264;-79
2021/10/14 09:57:57;;;;;;;5.00;2.60;;;;;;;22.24;31.19;100239.69;4934854;29;20237;-79
2021/10/14 10:00:40;;;;;;;3.00;2.70;;;;;;;22.60;30.25;100244.94;4951018;29;20653;-80
2021/10/14 10:03:10;;;;;;;3.10;2.57;;;;;;;22.21;30.55;100229.31;4950259;29;20238;-79
2021/10/14 10:05:38;;;;;;;3.87;2.67;;;;;;;22.95;29.75;100241.97;4948241;29;20526;-79
2021/10/14 10:08:12;;;;;;;2.77;2.33;;;;;;;22.06;30.64;100234.88;4949317;29;20229;-79
2021/10/14 10:10:41;;;;;;;4.53;2.83;;;;;;;21.69;31.33;100238.00;4950411;29;20507;-79
2021/10/14 10:13:11;;;;;;;4.00;2.83;;;;;;;22.14;31.23;100242.47;4949364;29;20208;-79
2021/10/14 10:15:41;;;;;;;3.03;2.23;;;;;;;21.39;31.55;100233.44;4944502;23;20222;-79
2021/10/14 10:18:27;;;;;;;3.23;2.27;;;;;;;21.79;31.39;100237.94;4970284;29;20225;-79
2021/10/14 10:21:02;;;;;;;2.87;2.13;;;;;;;22.14;30.63;100231.56;4983263;23;20235;-79
2021/10/14 10:23:48;;;;;;;4.23;2.70;;;;;;;21.86;31.50;100232.22;4936796;29;20297;-79
2021/10/14 10:26:33;;;;;;;5.00;2.63;;;;;;;21.79;31.63;100235.22;4936882;29;20667;-79
2021/10/14 10:29:17;;;;;;;4.20;2.40;;;;;;;22.48;30.62;100233.56;4962499;23;20329;-80
2021/10/14 10:31:48;;;;;;;6.23;2.60;;;;;;;23.13;29.44;100226.78;4973906;23;20236;-79
2021/10/14 10:34:42;;;;;;;4.93;2.80;;;;;;;22.67;29.90;100231.78;4976364;29;20213;-79
2021/10/14 10:37:43;;;;;;;2.60;1.70;;;;;;;22.62;29.84;100226.34;4976866;29;20193;-79
2021/10/14 10:40:44;;;;;;;3.87;2.10;;;;;;;21.88;30.55;100210.94;4983007;23;20225;-79
2021/10/14 10:43:34;;;;;;;2.10;1.60;;;;;;;22.69;30.07;100224.91;4976278;29;20232;-80
2021/10/14 10:46:17;;;;;;;3.63;1.80;;;;;;;22.81;30.05;100230.88;4977924;23;20217;-79
2021/10/14 10:49:21;;;;;;;3.00;1.30;;;;;;;22.68;30.07;100217.00;4978814;23;20288;-78
2021/10/14 10:52:29;;;;;;;2.43;1.50;;;;;;;23.13;29.38;100216.66;4971087;23;20225;-79
2021/10/14 10:55:21;;;;;;;2.00;1.40;;;;;;;23.25;28.81;100216.25;4975662;29;20242;-81
2021/10/14 10:57:55;;;;;;;2.57;1.50;;;;;;;23.17;28.68;100214.16;4969260;29;20255;-79
2021/10/14 11:00:24;;;;;;;1.43;1.20;;;;;;;22.95;29.33;100200.97;4950827;29;20229;-79
2021/10/14 11:03:14;;;;;;;2.53;1.17;;;;;;;22.08;29.76;100215.47;4958909;23;20267;-79
2021/10/14 11:06:19;;;;;;;2.37;1.03;;;;;;;21.95;30.30;100206.84;4954338;29;20225;-79
2021/10/14 11:09:10;;;;;;;1.60;1.00;;;;;;;21.42;30.93;100205.63;4966955;23;20239;-79
2021/10/14 11:11:44;;;;;;;4.30;2.90;;;;;;;20.96;31.51;100213.03;4969943;23;20268;-79
2021/10/14 11:14:15;;;;;;;17.80;8.50;;;;;;;22.54;29.63;100202.34;4970804;29;20239;-80
2021/10/14 11:17:16;;;;;;;2.07;1.33;;;;;;;23.00;29.11;100194.66;4979431;23;20216;-79
2021/10/14 11:19:44;;;;;;;3.60;3.30;;;;;;;23.13;29.30;100169.38;4955959;29;20221;-79
2021/10/14 11:22:20;;;;;;;1.37;1.17;;;;;;;23.25;29.16;100195.19;4976784;23;20366;-79
2021/10/14 11:25:13;;;;;;;0.60;0.60;;;;;;;22.91;28.91;100186.25;4969134;29;20217;-80
2021/10/14 11:27:58;;;;;;;0.57;0.57;;;;;;;23.05;29.39;100184.47;4949605;29;20239;-80
2021/10/14 11:30:46;;;;;;;0.40;0.40;;;;;;;22.91;28.89;100193.66;4935147;29;20298;-79
2021/10/14 11:33:44;;;;;;;0.80;0.57;;;;;;;22.85;29.82;100197.50;4972185;23;20272;-79
2021/10/14 11:36:19;;;;;;;0.60;0.60;;;;;;;22.18;30.15;100185.41;4942049;29;20280;-79
2021/10/14 11:39:04;;;;;;;0.70;0.60;;;;;;;22.04;31.25;100182.50;4939033;29;20232;-79
2021/10/14 11:41:33;;;;;;;1.13;0.80;;;;;;;21.81;31.25;100189.41;5075333;23;20267;-79
2021/10/14 11:44:12;;;;;;;0.83;0.60;;;;;;;21.57;32.19;100191.13;4984858;23;20240;-78
2021/10/14 11:46:40;;;;;;;0.70;0.70;;;;;;;22.31;31.39;100198.44;4920449;23;20302;-78
2021/10/14 11:49:15;;;;;;;0.67;0.60;;;;;;;22.38;30.97;100188.03;4950256;23;20266;-78
2021/10/14 11:51:50;;;;;;;0.80;0.80;;;;;;;22.57;31.00;100188.97;4946192;23;20232;-78
2021/10/14 11:54:19;;;;;;;1.20;0.80;;;;;;;22.73;30.29;100193.22;4993048;23;20223;-78
2021/10/14 11:57:07;;;;;;;1.00;0.90;;;;;;;22.31;30.86;100188.31;4965139;23;20228;-78
2021/10/14 11:59:38;;;;;;;1.17;0.93;;;;;;;22.10;31.24;100183.28;4958478;29;20643;-79
2021/10/14 12:02:10;;;;;;;1.53;1.27;;;;;;;22.02;31.39;100184.72;4939204;23;20298;-79
2021/10/14 12:05:02;;;;;;;1.30;1.20;;;;;;;22.27;30.95;100189.19;4932606;29;20281;-78
2021/10/14 12:07:33;;;;;;;1.63;1.40;;;;;;;21.87;31.92;100184.75;4927627;29;20668;-79
2021/10/14 12:10:03;;;;;;;1.50;1.40;;;;;;;20.72;33.85;100176.56;4905195;29;20337;-79